Time;durP1;ratioP1;P1;durP2;ratioP2;P2;SDS_P1;SDS_P2;PMS_P1;PMS_P2;Temp;Humidity;BMP_temperature;BMP_pressure;BME280_temperature;BME280_humidity;BME280_pressure;Samples;Min_cycle;Max_cycle;Signal;HPM_P1;HPM_P2
2023/08/12 00:00:25;;;;;;;6.17;2.43;;;;;;;;;;5013036;28;20467;-57
2023/08/12 00:02:52;;;;;;;3.87;1.90;;;;;;;;;;5013251;28;20439;-57
2023/08/12 00:05:21;;;;;;;3.53;2.13;;;;;;;;;;5012897;28;20590;-58
2023/08/12 00:07:49;;;;;;;6.13;2.23;;;;;;;;;;5012378;28;20471;-58
2023/08/12 00:10:17;;;;;;;3.40;2.33;;;;;;;;;;5012859;28;20511;-55
2023/08/12 00:12:44;;;;;;;3.67;1.80;;;;;;;;;;5012515;28;20443;-56
2023/08/12 00:15:11;;;;;;;4.63;2.10;;;;;;;;;;5013389;28;20514;-56
2023/08/12 00:17:41;;;;;;;2.60;1.70;;;;;;;;;;5012804;28;20442;-55
2023/08/12 00:20:10;;;;;;;3.60;2.17;;;;;;;;;;5012562;28;20439;-56
2023/08/12 00:22:39;;;;;;;4.53;2.03;;;;;;;;;;5010705;28;20475;-55
2023/08/12 00:25:07;;;;;;;2.60;1.80;;;;;;;;;;5012800;28;20654;-57
2023/08/12 00:27:34;;;;;;;2.90;1.70;;;;;;;;;;5012549;28;20967;-55
2023/08/12 00:30:02;;;;;;;2.83;1.90;;;;;;;;;;5012369;28;20525;-54
2023/08/12 00:32:29;;;;;;;2.93;2.00;;;;;;;;;;5012612;28;20447;-54
2023/08/12 00:34:56;;;;;;;4.80;2.20;;;;;;;;;;5012012;28;20542;-54
2023/08/12 00:37:23;;;;;;;2.80;1.60;;;;;;;;;;5011638;28;20546;-57
2023/08/12 00:39:52;;;;;;;2.80;1.93;;;;;;;;;;5012258;28;21151;-54
2023/08/12 00:42:19;;;;;;;3.33;1.93;;;;;;;;;;5012403;28;20439;-55
2023/08/12 00:44:46;;;;;;;3.03;1.63;;;;;;;;;;5012204;28;20463;-55
2023/08/12 00:47:14;;;;;;;3.07;1.60;;;;;;;;;;5012386;28;20494;-58
2023/08/12 00:49:43;;;;;;;3.27;1.93;;;;;;;;;;5012080;28;20561;-56
2023/08/12 00:52:10;;;;;;;2.57;1.60;;;;;;;;;;5011865;28;20447;-55
2023/08/12 00:54:38;;;;;;;2.93;1.80;;;;;;;;;;5012243;28;20517;-57
2023/08/12 00:57:07;;;;;;;3.13;1.83;;;;;;;;;;5015345;28;20946;-56
2023/08/12 00:59:36;;;;;;;3.67;1.93;;;;;;;;;;5025812;28;20438;-56
2023/08/12 01:02:04;;;;;;;2.70;1.83;;;;;;;;;;5031643;28;20517;-54
2023/08/12 01:04:32;;;;;;;3.20;2.00;;;;;;;;;;5023780;28;20548;-56
2023/08/12 01:06:59;;;;;;;2.70;1.70;;;;;;;;;;5011649;28;20440;-56
2023/08/12 01:09:26;;;;;;;2.57;1.80;;;;;;;;;;5012698;28;20936;-55
2023/08/12 01:11:56;;;;;;;4.07;2.37;;;;;;;;;;5018172;28;20443;-54
2023/08/12 01:14:28;;;;;;;2.90;2.13;;;;;;;;;;5019404;28;20561;-54
2023/08/12 01:16:58;;;;;;;2.97;1.97;;;;;;;;;;5019547;28;20473;-54
2023/08/12 01:19:31;;;;;;;2.83;1.60;;;;;;;;;;5021221;28;20443;-54
2023/08/12 01:22:01;;;;;;;3.30;1.87;;;;;;;;;;5019257;28;20497;-54
2023/08/12 01:24:36;;;;;;;3.40;1.80;;;;;;;;;;5023352;28;20553;-54
2023/08/12 01:27:04;;;;;;;3.67;2.50;;;;;;;;;;5015133;28;20802;-55
2023/08/12 01:29:31;;;;;;;3.80;2.50;;;;;;;;;;5017658;28;20475;-55
2023/08/12 01:32:03;;;;;;;3.30;1.70;;;;;;;;;;5016884;28;20532;-54
2023/08/12 01:34:34;;;;;;;5.60;2.47;;;;;;;;;;5018282;28;20480;-54
2023/08/12 01:37:03;;;;;;;3.50;2.13;;;;;;;;;;5027565;28;20881;-54
2023/08/12 01:39:32;;;;;;;3.30;2.20;;;;;;;;;;5031016;28;20467;-54
2023/08/12 01:42:00;;;;;;;2.60;1.73;;;;;;;;;;5030557;28;20438;-56
2023/08/12 01:44:27;;;;;;;3.90;1.53;;;;;;;;;;5030439;28;20551;-54
2023/08/12 01:46:55;;;;;;;3.90;1.77;;;;;;;;;;5030722;28;20504;-54
2023/08/12 01:49:23;;;;;;;3.03;1.80;;;;;;;;;;5011146;28;20534;-56
2023/08/12 01:51:50;;;;;;;3.40;1.87;;;;;;;;;;5012527;28;20574;-53
2023/08/12 01:54:17;;;;;;;2.77;1.87;;;;;;;;;;5010448;28;20527;-56
2023/08/12 01:56:46;;;;;;;2.60;1.70;;;;;;;;;;5011038;28;20959;-58
2023/08/12 01:59:13;;;;;;;3.20;1.87;;;;;;;;;;5011216;28;20439;-57
2023/08/12 02:01:40;;;;;;;2.20;1.70;;;;;;;;;;5010501;28;20952;-56
2023/08/12 02:04:07;;;;;;;3.13;1.80;;;;;;;;;;5024241;28;20545;-56
2023/08/12 02:06:35;;;;;;;2.77;1.50;;;;;;;;;;5030893;28;20438;-55
2023/08/12 02:09:02;;;;;;;2.57;1.80;;;;;;;;;;5031586;28;20454;-55
2023/08/12 02:11:29;;;;;;;3.50;1.77;;;;;;;;;;5029949;28;20527;-55
2023/08/12 02:13:58;;;;;;;2.30;1.53;;;;;;;;;;5017790;28;20519;-55
2023/08/12 02:16:25;;;;;;;2.93;1.80;;;;;;;;;;5018011;28;20522;-56
2023/08/12 02:18:52;;;;;;;3.60;1.87;;;;;;;;;;5009658;28;20474;-55
2023/08/12 02:21:19;;;;;;;2.53;1.60;;;;;;;;;;5030067;28;20529;-55
2023/08/12 02:23:47;;;;;;;2.20;1.47;;;;;;;;;;5039205;23;20475;-86
2023/08/12 02:26:14;;;;;;;2.40;1.13;;;;;;;;;;5034788;28;20446;-87
2023/08/12 02:28:41;;;;;;;2.73;1.50;;;;;;;;;;5034430;28;20435;-86
2023/08/12 02:31:10;;;;;;;4.70;2.10;;;;;;;;;;5036407;28;20478;-86
2023/08/12 02:33:37;;;;;;;3.47;2.00;;;;;;;;;;5035344;28;20477;-88
2023/08/12 02:36:05;;;;;;;2.73;1.70;;;;;;;;;;5036396;28;20442;-87
2023/08/12 02:38:32;;;;;;;2.90;1.70;;;;;;;;;;5035896;28;20481;-84
2023/08/12 02:40:59;;;;;;;2.67;1.67;;;;;;;;;;5034765;28;20486;-84
2023/08/12 02:43:26;;;;;;;2.57;1.67;;;;;;;;;;5035708;28;20465;-84
2023/08/12 02:45:54;;;;;;;3.30;1.60;;;;;;;;;;5040199;28;20474;-84
2023/08/12 02:48:23;;;;;;;2.87;1.63;;;;;;;;;;5043640;28;20443;-84
2023/08/12 02:50:50;;;;;;;2.70;1.60;;;;;;;;;;5039904;28;20509;-84
2023/08/12 02:53:18;;;;;;;2.70;1.70;;;;;;;;;;5040514;28;20499;-84
2023/08/12 02:55:46;;;;;;;3.10;1.80;;;;;;;;;;5037336;28;20967;-84
2023/08/12 02:58:13;;;;;;;2.60;1.80;;;;;;;;;;5038870;28;20508;-84
2023/08/12 03:00:43;;;;;;;2.90;2.10;;;;;;;;;;5027847;28;20467;-85
2023/08/12 03:03:10;;;;;;;3.67;1.97;;;;;;;;;;5020714;28;20513;-85
2023/08/12 03:05:40;;;;;;;2.60;1.87;;;;;;;;;;5040369;28;20449;-84
2023/08/12 03:08:08;;;;;;;2.57;1.57;;;;;;;;;;5028703;28;20443;-83
2023/08/12 03:10:35;;;;;;;3.90;2.23;;;;;;;;;;5038309;28;20987;-84
2023/08/12 03:13:03;;;;;;;3.03;1.60;;;;;;;;;;5031504;28;20450;-85
2023/08/12 03:15:30;;;;;;;5.07;1.80;;;;;;;;;;5035220;28;20999;-84
2023/08/12 03:17:57;;;;;;;2.40;1.60;;;;;;;;;;5040106;28;20466;-85
2023/08/12 03:20:25;;;;;;;3.40;1.50;;;;;;;;;;5040600;28;20494;-84
2023/08/12 03:22:54;;;;;;;2.70;1.43;;;;;;;;;;5026391;28;20509;-84
2023/08/12 03:25:22;;;;;;;3.00;1.70;;;;;;;;;;5021439;28;20458;-84
2023/08/12 03:27:49;;;;;;;2.80;1.97;;;;;;;;;;5022304;28;20495;-84
2023/08/12 03:30:16;;;;;;;2.20;1.50;;;;;;;;;;5028153;28;20470;-84
2023/08/12 03:32:43;;;;;;;2.53;1.57;;;;;;;;;;5023097;28;20498;-84
2023/08/12 03:35:11;;;;;;;4.00;1.77;;;;;;;;;;5021934;28;20427;-84
2023/08/12 03:37:38;;;;;;;3.13;1.60;;;;;;;;;;5020749;28;20473;-84
2023/08/12 03:40:08;;;;;;;3.13;2.03;;;;;;;;;;5022948;28;20475;-84
2023/08/12 03:42:35;;;;;;;4.43;2.40;;;;;;;;;;5053085;28;20468;-84
2023/08/12 03:45:02;;;;;;;2.77;1.70;;;;;;;;;;5051415;28;20489;-84
2023/08/12 03:47:30;;;;;;;2.53;1.90;;;;;;;;;;5037486;28;20450;-85
2023/08/12 03:49:57;;;;;;;3.27;1.70;;;;;;;;;;5039775;28;20927;-84
2023/08/12 03:52:24;;;;;;;2.90;1.50;;;;;;;;;;5037340;28;20473;-85
2023/08/12 03:54:52;;;;;;;3.17;1.80;;;;;;;;;;5036858;28;20447;-84
2023/08/12 03:57:21;;;;;;;3.63;1.90;;;;;;;;;;5020273;28;21015;-84
2023/08/12 03:59:48;;;;;;;3.80;2.23;;;;;;;;;;5030356;28;20466;-84
2023/08/12 04:02:16;;;;;;;3.57;2.17;;;;;;;;;;5034197;28;20447;-84
2023/08/12 04:04:43;;;;;;;3.67;1.93;;;;;;;;;;5022124;28;20427;-84
2023/08/12 04:07:11;;;;;;;2.90;2.10;;;;;;;;;;5021546;28;20458;-84
2023/08/12 04:09:38;;;;;;;2.67;1.63;;;;;;;;;;5029611;28;20874;-84
2023/08/12 04:12:05;;;;;;;2.40;1.40;;;;;;;;;;5018961;28;20479;-84
2023/08/12 04:14:34;;;;;;;2.67;2.00;;;;;;;;;;5030768;28;20455;-84
2023/08/12 04:17:01;;;;;;;2.77;1.90;;;;;;;;;;5022976;28;20867;-84
2023/08/12 04:19:29;;;;;;;2.10;1.60;;;;;;;;;;5034059;28;20486;-84
2023/08/12 04:21:56;;;;;;;3.20;1.87;;;;;;;;;;5037222;28;20466;-84
2023/08/12 04:24:23;;;;;;;4.67;1.77;;;;;;;;;;5023967;28;21854;-84
2023/08/12 04:26:50;;;;;;;3.20;1.80;;;;;;;;;;5021736;28;20513;-84
2023/08/12 04:29:18;;;;;;;3.60;1.80;;;;;;;;;;5027205;28;20572;-84
2023/08/12 04:31:46;;;;;;;3.80;1.73;;;;;;;;;;5018341;28;20482;-84
2023/08/12 04:34:14;;;;;;;3.90;1.67;;;;;;;;;;5027515;28;20512;-84
2023/08/12 04:36:41;;;;;;;2.80;1.70;;;;;;;;;;5025520;28;20443;-84
2023/08/12 04:39:08;;;;;;;4.70;2.37;;;;;;;;;;5022304;28;20468;-84
2023/08/12 04:41:38;;;;;;;2.40;1.70;;;;;;;;;;5028651;28;20485;-85
2023/08/12 04:44:05;;;;;;;3.00;1.70;;;;;;;;;;5038216;28;20446;-84
2023/08/12 04:46:33;;;;;;;3.30;1.57;;;;;;;;;;5035073;28;20442;-84
2023/08/12 04:49:01;;;;;;;3.93;1.80;;;;;;;;;;5030572;28;20465;-84
2023/08/12 04:51:29;;;;;;;3.10;1.83;;;;;;;;;;5024995;28;20500;-84
2023/08/12 04:53:56;;;;;;;2.87;2.10;;;;;;;;;;5033031;28;20451;-84
2023/08/12 04:56:24;;;;;;;3.20;1.90;;;;;;;;;;5019428;28;20455;-84
2023/08/12 04:58:51;;;;;;;2.40;1.37;;;;;;;;;;5018680;28;20479;-84
2023/08/12 05:01:18;;;;;;;2.70;1.97;;;;;;;;;;5017921;28;20463;-84
2023/08/12 05:03:45;;;;;;;5.40;2.07;;;;;;;;;;5023156;28;20470;-84
2023/08/12 05:06:14;;;;;;;3.50;1.80;;;;;;;;;;5027707;28;20447;-84
2023/08/12 05:08:41;;;;;;;3.33;1.90;;;;;;;;;;5017675;28;20478;-84
2023/08/12 05:11:09;;;;;;;4.33;1.70;;;;;;;;;;5018190;28;20543;-84
2023/08/12 05:13:36;;;;;;;3.13;1.90;;;;;;;;;;5020074;28;20454;-84
2023/08/12 05:16:03;;;;;;;4.03;2.17;;;;;;;;;;5036478;28;20831;-84
2023/08/12 05:18:30;;;;;;;3.00;1.90;;;;;;;;;;5036897;28;20478;-84
2023/08/12 05:20:58;;;;;;;3.20;1.70;;;;;;;;;;5026379;28;20463;-84
2023/08/12 05:23:27;;;;;;;3.73;2.13;;;;;;;;;;5018042;28;20447;-84
2023/08/12 05:25:54;;;;;;;2.37;1.83;;;;;;;;;;5034609;28;20830;-84
2023/08/12 05:28:22;;;;;;;3.17;1.97;;;;;;;;;;5032845;28;20466;-84
2023/08/12 05:30:49;;;;;;;16.13;2.57;;;;;;;;;;5026714;28;20848;-84
2023/08/12 05:33:17;;;;;;;2.90;1.90;;;;;;;;;;5034209;28;20446;-84
2023/08/12 05:35:44;;;;;;;3.53;1.90;;;;;;;;;;5014508;28;20890;-84
2023/08/12 05:38:11;;;;;;;5.90;2.10;;;;;;;;;;5015676;28;20554;-83
2023/08/12 05:40:40;;;;;;;2.93;1.97;;;;;;;;;;5024936;28;20799;-83
2023/08/12 05:43:07;;;;;;;4.50;2.00;;;;;;;;;;5020037;28;20508;-85
2023/08/12 05:45:34;;;;;;;3.50;2.43;;;;;;;;;;5018576;28;20471;-84
2023/08/12 05:48:01;;;;;;;3.00;2.00;;;;;;;;;;5016641;28;20447;-84
2023/08/12 05:50:29;;;;;;;2.70;2.13;;;;;;;;;;5016496;28;20895;-84
2023/08/12 05:52:56;;;;;;;4.40;2.13;;;;;;;;;;5017556;28;20471;-84
2023/08/12 05:55:23;;;;;;;2.80;1.90;;;;;;;;;;5029805;28;20451;-84
2023/08/12 05:57:52;;;;;;;3.70;2.20;;;;;;;;;;5018067;28;20451;-84
2023/08/12 06:00:19;;;;;;;2.40;1.60;;;;;;;;;;5019794;28;20470;-84
2023/08/12 06:02:46;;;;;;;3.00;1.77;;;;;;;;;;5023938;28;20450;-84
2023/08/12 06:05:14;;;;;;;3.17;2.10;;;;;;;;;;5029568;28;20500;-84
2023/08/12 06:07:41;;;;;;;3.00;2.00;;;;;;;;;;5021459;28;20440;-84
2023/08/12 06:10:09;;;;;;;3.83;1.87;;;;;;;;;;5019615;28;20966;-84
2023/08/12 06:12:36;;;;;;;4.50;2.00;;;;;;;;;;5018455;28;20565;-84
2023/08/12 06:15:05;;;;;;;7.63;2.40;;;;;;;;;;5017173;28;20510;-84
2023/08/12 06:17:32;;;;;;;3.63;2.03;;;;;;;;;;5017219;28;20435;-84
2023/08/12 06:19:59;;;;;;;3.20;1.73;;;;;;;;;;5019499;28;20496;-84
2023/08/12 06:22:27;;;;;;;2.63;2.00;;;;;;;;;;5028787;28;20447;-84
2023/08/12 06:24:53;;;;;;;2.70;1.93;;;;;;;;;;5027550;28;20856;-84
2023/08/12 06:27:20;;;;;;;4.27;1.90;;;;;;;;;;5026181;28;20954;-84
2023/08/12 06:29:48;;;;;;;2.90;1.80;;;;;;;;;;5024682;28;20491;-84
2023/08/12 06:32:16;;;;;;;3.90;2.10;;;;;;;;;;5024752;28;21058;-84
2023/08/12 06:34:44;;;;;;;3.87;2.27;;;;;;;;;;5025245;28;20470;-84
2023/08/12 06:37:11;;;;;;;4.63;2.43;;;;;;;;;;5026564;28;20442;-84
2023/08/12 06:39:38;;;;;;;3.13;1.90;;;;;;;;;;5026744;28;20582;-84
2023/08/12 06:42:06;;;;;;;3.23;2.20;;;;;;;;;;5022341;28;20439;-84
2023/08/12 06:44:33;;;;;;;3.67;2.60;;;;;;;;;;5022572;28;20451;-84
2023/08/12 06:47:00;;;;;;;3.70;2.00;;;;;;;;;;5026270;28;20497;-84
2023/08/12 06:49:29;;;;;;;4.00;2.40;;;;;;;;;;5027635;28;20463;-84
2023/08/12 06:51:56;;;;;;;3.70;2.20;;;;;;;;;;5024150;28;20479;-84
2023/08/12 06:54:24;;;;;;;3.07;2.30;;;;;;;;;;5025602;28;20471;-84
2023/08/12 06:56:51;;;;;;;3.07;2.37;;;;;;;;;;5026321;28;20449;-84
2023/08/12 06:59:19;;;;;;;3.50;2.40;;;;;;;;;;5025599;28;20487;-84
2023/08/12 07:01:46;;;;;;;4.47;2.50;;;;;;;;;;5031466;28;20500;-84
2023/08/12 07:04:13;;;;;;;3.83;2.37;;;;;;;;;;5028330;28;20460;-84
2023/08/12 07:06:42;;;;;;;3.50;2.33;;;;;;;;;;5028869;28;20863;-84
2023/08/12 07:09:09;;;;;;;2.70;2.10;;;;;;;;;;5018204;28;20517;-84
2023/08/12 07:11:36;;;;;;;3.00;2.03;;;;;;;;;;5020901;28;20520;-84
2023/08/12 07:14:04;;;;;;;4.93;2.53;;;;;;;;;;5022728;28;20443;-84
2023/08/12 07:16:31;;;;;;;2.80;2.33;;;;;;;;;;5022156;28;20498;-84
2023/08/12 07:18:58;;;;;;;3.03;2.33;;;;;;;;;;5020935;28;20486;-83
2023/08/12 07:21:25;;;;;;;3.50;2.20;;;;;;;;;;5022190;28;20501;-85
2023/08/12 07:23:54;;;;;;;2.70;1.90;;;;;;;;;;5024281;28;20447;-84
2023/08/12 07:26:21;;;;;;;3.00;2.30;;;;;;;;;;5022940;28;20455;-84
2023/08/12 07:28:49;;;;;;;4.27;2.53;;;;;;;;;;5023563;28;20851;-84
2023/08/12 07:31:16;;;;;;;3.70;2.60;;;;;;;;;;5019371;28;20813;-84
2023/08/12 07:33:43;;;;;;;3.63;2.80;;;;;;;;;;5024578;28;20976;-84
2023/08/12 07:36:10;;;;;;;2.67;2.03;;;;;;;;;;5026228;28;20938;-84
2023/08/12 07:38:38;;;;;;;3.03;2.13;;;;;;;;;;5027709;28;20446;-86
2023/08/12 07:41:06;;;;;;;3.40;2.13;;;;;;;;;;5020749;28;20530;-87
2023/08/12 07:43:34;;;;;;;3.23;2.00;;;;;;;;;;5019346;28;20470;-85
2023/08/12 07:46:01;;;;;;;3.33;2.10;;;;;;;;;;5022723;28;20837;-88
2023/08/12 07:48:28;;;;;;;3.63;2.20;;;;;;;;;;5021612;28;20934;-88
2023/08/12 07:50:59;;;;;;;2.53;2.10;;;;;;;;;;5019979;28;21036;-86
2023/08/12 07:53:26;;;;;;;3.60;2.53;;;;;;;;;;5020130;28;20479;-85
2023/08/12 07:55:54;;;;;;;4.23;2.47;;;;;;;;;;5020584;28;20477;-85
2023/08/12 07:58:22;;;;;;;3.17;2.10;;;;;;;;;;5021012;28;20479;-85
2023/08/12 08:00:50;;;;;;;3.17;2.30;;;;;;;;;;5018100;28;20578;-85
2023/08/12 08:03:17;;;;;;;3.80;2.23;;;;;;;;;;5018232;28;20448;-85
2023/08/12 08:05:45;;;;;;;4.40;2.03;;;;;;;;;;5020632;28;20509;-84
2023/08/12 08:08:12;;;;;;;2.47;1.63;;;;;;;;;;5023748;28;20454;-85
2023/08/12 08:10:40;;;;;;;3.50;2.40;;;;;;;;;;5023911;28;20524;-84
2023/08/12 08:13:07;;;;;;;3.20;2.20;;;;;;;;;;5025592;28;20486;-84
2023/08/12 08:15:36;;;;;;;3.00;2.20;;;;;;;;;;5029427;28;20489;-85
2023/08/12 08:18:04;;;;;;;3.10;2.30;;;;;;;;;;5026430;28;20481;-84
2023/08/12 08:20:31;;;;;;;3.30;2.13;;;;;;;;;;5032185;28;20478;-84
2023/08/12 08:22:58;;;;;;;2.60;1.90;;;;;;;;;;5023916;28;20474;-84
2023/08/12 08:25:26;;;;;;;3.13;2.37;;;;;;;;;;5028206;28;20483;-84
2023/08/12 08:27:53;;;;;;;3.40;2.23;;;;;;;;;;5018063;28;20455;-84
2023/08/12 08:30:20;;;;;;;3.13;2.10;;;;;;;;;;5022009;28;20458;-83
2023/08/12 08:32:49;;;;;;;4.50;2.43;;;;;;;;;;5033929;28;20488;-83
2023/08/12 08:35:17;;;;;;;3.60;2.80;;;;;;;;;;5030477;28;20440;-84
2023/08/12 08:37:44;;;;;;;3.30;2.83;;;;;;;;;;5025874;28;20450;-84
2023/08/12 08:40:13;;;;;;;3.03;2.30;;;;;;;;;;5031763;28;20471;-84
2023/08/12 08:42:41;;;;;;;4.30;3.90;;;;;;;;;;5023946;28;20482;-84
2023/08/12 08:45:11;;;;;;;7.27;5.70;;;;;;;;;;5032950;28;20458;-84
2023/08/12 08:47:39;;;;;;;4.33;2.80;;;;;;;;;;5033320;28;20508;-84
2023/08/12 08:50:08;;;;;;;3.13;2.40;;;;;;;;;;5029831;28;20501;-83
2023/08/12 08:52:37;;;;;;;3.00;2.50;;;;;;;;;;5031294;28;20481;-85
2023/08/12 08:55:04;;;;;;;3.57;2.17;;;;;;;;;;5019314;28;20454;-84
2023/08/12 08:57:32;;;;;;;5.00;1.93;;;;;;;;;;5027708;28;20442;-84
2023/08/12 08:59:59;;;;;;;3.63;2.33;;;;;;;;;;5032822;28;20497;-84
2023/08/12 09:02:27;;;;;;;2.97;2.20;;;;;;;;;;5015195;28;20450;-85
2023/08/12 09:04:55;;;;;;;5.40;2.30;;;;;;;;;;5030014;28;20446;-84
2023/08/12 09:07:24;;;;;;;2.90;2.00;;;;;;;;;;5029216;28;20792;-84
2023/08/12 09:09:52;;;;;;;2.90;2.10;;;;;;;;;;5018131;28;20500;-84
2023/08/12 09:12:20;;;;;;;3.23;2.20;;;;;;;;;;5025897;28;20483;-84
2023/08/12 09:14:47;;;;;;;2.70;2.00;;;;;;;;;;5018520;28;20557;-83
2023/08/12 09:17:16;;;;;;;3.17;2.10;;;;;;;;;;5024544;28;20492;-85
2023/08/12 09:19:43;;;;;;;3.47;2.30;;;;;;;;;;5023329;28;20524;-83
2023/08/12 09:22:10;;;;;;;3.70;2.60;;;;;;;;;;5023762;28;20438;-85
2023/08/12 09:24:39;;;;;;;5.97;2.40;;;;;;;;;;5017386;28;20473;-86
2023/08/12 09:27:07;;;;;;;4.10;2.23;;;;;;;;;;5018799;28;20444;-85
2023/08/12 09:29:35;;;;;;;3.57;2.33;;;;;;;;;;5015211;28;20467;-85
2023/08/12 09:32:11;;;;;;;5.37;2.80;;;;;;;;;;5018446;28;20545;-85
2023/08/12 09:34:39;;;;;;;3.10;2.13;;;;;;;;;;5015914;28;20461;-86
2023/08/12 09:37:06;;;;;;;3.20;2.27;;;;;;;;;;5015639;28;20487;-84
2023/08/12 09:39:34;;;;;;;3.30;2.73;;;;;;;;;;5022702;28;20470;-85
2023/08/12 09:42:03;;;;;;;2.70;2.07;;;;;;;;;;5021964;28;20500;-85
2023/08/12 09:44:31;;;;;;;3.70;2.10;;;;;;;;;;5018859;28;20551;-85
2023/08/12 09:46:59;;;;;;;3.80;2.23;;;;;;;;;;5021163;28;20477;-87
2023/08/12 09:49:27;;;;;;;4.17;3.07;;;;;;;;;;5024623;28;20548;-88
2023/08/12 09:51:55;;;;;;;4.17;2.40;;;;;;;;;;5030578;28;20461;-88
2023/08/12 09:54:24;;;;;;;3.70;3.17;;;;;;;;;;5029466;28;20821;-88
2023/08/12 09:56:54;;;;;;;4.60;3.00;;;;;;;;;;5030666;28;20462;-87
2023/08/12 09:59:24;;;;;;;3.27;2.87;;;;;;;;;;5030709;28;20466;-88
2023/08/12 10:01:51;;;;;;;3.10;2.50;;;;;;;;;;5031062;28;20477;-90
2023/08/12 10:04:20;;;;;;;3.90;2.47;;;;;;;;;;5032590;28;20450;-90
2023/08/12 10:06:48;;;;;;;3.37;2.53;;;;;;;;;;5032372;28;20458;-90
2023/08/12 10:09:18;;;;;;;3.17;2.53;;;;;;;;;;5031798;28;20988;-92
2023/08/12 10:11:46;;;;;;;2.90;2.30;;;;;;;;;;5031603;28;20454;-90
2023/08/12 10:14:14;;;;;;;3.90;2.50;;;;;;;;;;5030587;28;20477;-88
2023/08/12 10:16:43;;;;;;;2.93;2.30;;;;;;;;;;5017327;28;20451;-89
2023/08/12 10:19:13;;;;;;;3.67;2.80;;;;;;;;;;5018977;28;20552;-89
2023/08/12 10:21:40;;;;;;;2.70;2.43;;;;;;;;;;5016761;28;20508;-88
2023/08/12 10:24:08;;;;;;;3.47;2.47;;;;;;;;;;5021850;28;20473;-88
2023/08/12 10:26:37;;;;;;;3.40;2.60;;;;;;;;;;5022072;28;20548;-89
2023/08/12 10:29:05;;;;;;;3.17;2.50;;;;;;;;;;5025060;28;20462;-89
2023/08/12 10:31:33;;;;;;;3.97;2.40;;;;;;;;;;5026724;28;20454;-89
2023/08/12 10:34:03;;;;;;;3.47;3.00;;;;;;;;;;5022157;28;20474;-89
2023/08/12 10:36:31;;;;;;;2.90;2.20;;;;;;;;;;5011031;28;20462;-88
2023/08/12 10:38:58;;;;;;;2.90;2.03;;;;;;;;;;5016106;28;20467;-89
2023/08/12 10:41:27;;;;;;;5.43;3.00;;;;;;;;;;5033510;28;20434;-89
2023/08/12 10:43:55;;;;;;;5.10;3.47;;;;;;;;;;5017116;28;20515;-88
2023/08/12 10:46:24;;;;;;;5.63;3.20;;;;;;;;;;5023745;28;20469;-89
2023/08/12 10:48:59;;;;;;;3.53;2.80;;;;;;;;;;5024745;28;20446;-88
2023/08/12 10:54:22;;;;;;;6.20;2.67;;;;;;;;;;5102565;27;21086;-57
2023/08/12 10:57:10;;;;;;;4.37;2.93;;;;;;;;;;5082547;28;20447;-58
2023/08/12 10:59:54;;;;;;;3.30;2.50;;;;;;;;;;5079202;28;20854;-55
2023/08/12 11:02:23;;;;;;;3.40;2.37;;;;;;;;;;5081323;28;20521;-55
2023/08/12 11:04:51;;;;;;;2.70;2.20;;;;;;;;;;5083491;28;20464;-55
2023/08/12 11:07:19;;;;;;;2.77;2.33;;;;;;;;;;5082343;28;20454;-56
2023/08/12 11:09:53;;;;;;;3.07;2.77;;;;;;;;;;5083241;28;20961;-56
2023/08/12 11:12:20;;;;;;;2.90;2.50;;;;;;;;;;5083983;28;20885;-58
2023/08/12 11:14:51;;;;;;;3.20;2.40;;;;;;;;;;5083915;28;20924;-57
2023/08/12 11:17:18;;;;;;;4.80;2.60;;;;;;;;;;5084278;28;20432;-57
2023/08/12 11:19:45;;;;;;;3.37;2.50;;;;;;;;;;5084403;28;20466;-57
2023/08/12 11:22:13;;;;;;;3.23;2.37;;;;;;;;;;5082674;28;20452;-57
2023/08/12 11:24:42;;;;;;;3.20;2.23;;;;;;;;;;5081268;28;20463;-57
2023/08/12 11:27:12;;;;;;;3.10;2.43;;;;;;;;;;5083308;28;20455;-58
2023/08/12 11:29:39;;;;;;;4.57;2.53;;;;;;;;;;5082290;28;20503;-58
2023/08/12 11:32:07;;;;;;;4.90;2.67;;;;;;;;;;5081484;28;20483;-58
2023/08/12 11:34:34;;;;;;;3.80;2.93;;;;;;;;;;5084244;28;20487;-58
2023/08/12 11:37:02;;;;;;;3.57;2.90;;;;;;;;;;5084505;28;20444;-58
2023/08/12 11:39:30;;;;;;;3.53;2.73;;;;;;;;;;5083955;28;21108;-57
2023/08/12 11:41:58;;;;;;;3.43;2.73;;;;;;;;;;5082797;28;20930;-58
2023/08/12 11:44:26;;;;;;;3.03;2.60;;;;;;;;;;5083777;28;20563;-57
2023/08/12 11:46:54;;;;;;;2.90;2.40;;;;;;;;;;5083100;28;20466;-58
2023/08/12 11:49:21;;;;;;;5.20;3.03;;;;;;;;;;5084021;28;20444;-57
2023/08/12 11:51:49;;;;;;;5.70;2.70;;;;;;;;;;5084210;28;20471;-58
2023/08/12 11:54:17;;;;;;;2.93;2.63;;;;;;;;;;5083866;28;20451;-58
2023/08/12 11:56:45;;;;;;;3.47;2.87;;;;;;;;;;5084080;28;20431;-57
2023/08/12 11:59:12;;;;;;;3.20;2.80;;;;;;;;;;5083720;28;20455;-56
2023/08/12 12:01:41;;;;;;;3.23;2.93;;;;;;;;;;5083157;28;20467;-57
2023/08/12 12:04:08;;;;;;;3.67;2.97;;;;;;;;;;5078584;28;20571;-58
2023/08/12 12:06:38;;;;;;;4.17;3.87;;;;;;;;;;5070688;28;21018;-59
2023/08/12 12:09:06;;;;;;;3.13;2.83;;;;;;;;;;5070389;28;20476;-57
2023/08/12 12:11:33;;;;;;;3.30;3.00;;;;;;;;;;5070195;28;20458;-57
2023/08/12 12:14:03;;;;;;;5.20;2.83;;;;;;;;;;5070068;28;20510;-57
2023/08/12 12:16:38;;;;;;;3.93;3.20;;;;;;;;;;5069527;28;20531;-58
2023/08/12 12:19:07;;;;;;;4.53;3.23;;;;;;;;;;5067171;28;20440;-59
2023/08/12 12:21:41;;;;;;;3.27;2.97;;;;;;;;;;5069397;28;20521;-57
2023/08/12 12:24:08;;;;;;;3.37;2.80;;;;;;;;;;5065013;28;20498;-59
2023/08/12 12:26:36;;;;;;;3.70;3.30;;;;;;;;;;5070098;28;20739;-58
2023/08/12 12:29:04;;;;;;;5.80;3.17;;;;;;;;;;5066847;28;20523;-55
2023/08/12 12:31:34;;;;;;;5.33;3.40;;;;;;;;;;5070040;28;20532;-58
2023/08/12 12:34:01;;;;;;;4.33;2.93;;;;;;;;;;5070110;28;20452;-58
2023/08/12 12:36:30;;;;;;;4.60;3.27;;;;;;;;;;5069872;28;20475;-57
2023/08/12 12:38:57;;;;;;;3.70;2.90;;;;;;;;;;5069916;28;20528;-57
2023/08/12 12:41:24;;;;;;;3.90;3.20;;;;;;;;;;5068775;28;20527;-58
2023/08/12 12:43:52;;;;;;;3.90;3.20;;;;;;;;;;5069531;28;20621;-58
2023/08/12 12:46:19;;;;;;;3.50;3.20;;;;;;;;;;5069318;28;21005;-57
2023/08/12 12:48:46;;;;;;;3.60;3.20;;;;;;;;;;5069867;28;20515;-57
2023/08/12 12:51:14;;;;;;;5.23;3.53;;;;;;;;;;5067219;28;20571;-56
2023/08/12 12:53:43;;;;;;;4.00;3.20;;;;;;;;;;5068023;28;20532;-57
2023/08/12 12:56:10;;;;;;;3.80;3.30;;;;;;;;;;5070860;28;20528;-55
2023/08/12 12:58:38;;;;;;;4.10;3.00;;;;;;;;;;5069933;28;20510;-56
2023/08/12 13:01:06;;;;;;;4.10;3.70;;;;;;;;;;5068516;28;20526;-56
2023/08/12 13:03:34;;;;;;;4.10;3.33;;;;;;;;;;5069705;28;20472;-58
2023/08/12 13:06:02;;;;;;;5.50;3.60;;;;;;;;;;5071297;28;20551;-57
2023/08/12 13:08:31;;;;;;;3.90;3.23;;;;;;;;;;5072085;28;20465;-57
2023/08/12 13:10:59;;;;;;;4.00;3.50;;;;;;;;;;5071692;28;20433;-57
2023/08/12 13:13:26;;;;;;;4.10;3.43;;;;;;;;;;5071890;28;20472;-58
2023/08/12 13:15:54;;;;;;;6.07;4.23;;;;;;;;;;5070788;28;20553;-56
2023/08/12 13:18:21;;;;;;;4.00;3.03;;;;;;;;;;5072065;28;20467;-56
2023/08/12 13:20:48;;;;;;;6.90;3.70;;;;;;;;;;5072040;28;20520;-57
2023/08/12 13:23:16;;;;;;;3.50;3.03;;;;;;;;;;5071465;28;20572;-57
2023/08/12 13:25:43;;;;;;;4.57;3.70;;;;;;;;;;5071769;28;20468;-56
2023/08/12 13:28:12;;;;;;;4.10;3.03;;;;;;;;;;5072012;28;20541;-58
2023/08/12 13:30:39;;;;;;;4.90;4.10;;;;;;;;;;5071415;28;20448;-57
2023/08/12 13:33:06;;;;;;;4.10;3.63;;;;;;;;;;5071380;28;20464;-58
2023/08/12 13:35:33;;;;;;;4.57;4.17;;;;;;;;;;5071919;28;20544;-55
2023/08/12 13:38:01;;;;;;;4.20;3.80;;;;;;;;;;5071629;28;20979;-57
2023/08/12 13:40:28;;;;;;;9.77;4.60;;;;;;;;;;5070833;28;20850;-57
2023/08/12 13:42:55;;;;;;;3.87;3.57;;;;;;;;;;5071194;28;20525;-57
2023/08/12 13:45:24;;;;;;;4.17;3.77;;;;;;;;;;5070546;28;20456;-57
2023/08/12 13:47:52;;;;;;;4.07;3.67;;;;;;;;;;5071332;28;20531;-57
2023/08/12 13:50:19;;;;;;;5.13;3.73;;;;;;;;;;5071675;28;20440;-57
2023/08/12 13:52:48;;;;;;;4.23;3.30;;;;;;;;;;5071291;28;20497;-56
2023/08/12 13:55:16;;;;;;;4.20;3.60;;;;;;;;;;5070990;28;20460;-57
2023/08/12 13:57:43;;;;;;;4.27;3.87;;;;;;;;;;5071135;28;20523;-57
2023/08/12 14:00:12;;;;;;;4.97;3.73;;;;;;;;;;5071503;28;20472;-58
2023/08/12 14:02:41;;;;;;;5.17;4.40;;;;;;;;;;5070673;28;20920;-57
2023/08/12 14:05:10;;;;;;;4.33;3.93;;;;;;;;;;5070931;28;20511;-57
2023/08/12 14:07:37;;;;;;;4.27;3.83;;;;;;;;;;5070709;28;20964;-57
2023/08/12 14:10:05;;;;;;;4.10;3.70;;;;;;;;;;5070618;28;20520;-58
2023/08/12 14:12:32;;;;;;;7.33;3.80;;;;;;;;;;5070740;28;20664;-56
2023/08/12 14:14:59;;;;;;;4.63;3.83;;;;;;;;;;5070613;28;20899;-57
2023/08/12 14:17:27;;;;;;;4.40;3.87;;;;;;;;;;5071710;28;20447;-56
2023/08/12 14:19:55;;;;;;;5.13;3.57;;;;;;;;;;5071059;28;20437;-55
2023/08/12 14:22:23;;;;;;;4.03;3.60;;;;;;;;;;5070710;28;20544;-56
2023/08/12 14:24:50;;;;;;;4.77;3.90;;;;;;;;;;5070720;28;20567;-55
2023/08/12 14:27:18;;;;;;;4.20;3.80;;;;;;;;;;5070202;28;20441;-57
2023/08/12 14:29:45;;;;;;;4.23;3.83;;;;;;;;;;5069919;28;20444;-56
2023/08/12 14:32:12;;;;;;;4.70;3.63;;;;;;;;;;5070000;28;20502;-56
2023/08/12 14:34:40;;;;;;;4.20;3.57;;;;;;;;;;5070871;28;20539;-55
2023/08/12 14:37:08;;;;;;;4.27;3.50;;;;;;;;;;5069940;28;20519;-56
2023/08/12 14:39:35;;;;;;;4.53;4.10;;;;;;;;;;5070281;28;20506;-56
2023/08/12 14:42:04;;;;;;;4.30;3.70;;;;;;;;;;5069945;28;20440;-57
2023/08/12 14:44:31;;;;;;;7.17;3.40;;;;;;;;;;5070852;28;20480;-56
2023/08/12 14:46:59;;;;;;;4.93;3.57;;;;;;;;;;5069896;28;20440;-57
2023/08/12 14:49:26;;;;;;;5.67;3.97;;;;;;;;;;5070460;28;20440;-57